createdAt,value
2022-11-26T00:02:24.046Z,22.13
2022-11-26T00:04:52.770Z,22.00
2022-11-26T00:07:23.030Z,21.60
2022-11-26T00:09:50.392Z,21.20
2022-11-26T00:12:23.739Z,23.77
2022-11-26T00:14:51.560Z,22.40
2022-11-26T00:17:19.619Z,22.15
2022-11-26T00:19:47.090Z,22.15
2022-11-26T00:22:29.647Z,21.83
2022-11-26T00:24:57.078Z,22.92
2022-11-26T00:27:28.076Z,22.88
2022-11-26T00:29:55.414Z,19.95
2022-11-26T00:32:25.521Z,23.95
2022-11-26T00:34:53.754Z,22.20
2022-11-26T00:37:25.998Z,20.05
2022-11-26T00:39:53.665Z,21.83
2022-11-26T00:42:20.768Z,20.98
2022-11-26T00:44:48.198Z,20.80
2022-11-26T00:47:15.184Z,20.67
2022-11-26T00:49:42.200Z,19.88
2022-11-26T00:52:32.640Z,21.35
2022-11-26T00:55:01.309Z,22.38
2022-11-26T00:57:28.325Z,20.60
2022-11-26T00:59:55.360Z,21.20
2022-11-26T01:02:22.340Z,21.45
2022-11-26T01:04:49.460Z,21.35
2022-11-26T01:07:16.572Z,21.95
2022-11-26T01:09:46.233Z,21.15
2022-11-26T01:12:14.764Z,21.75
2022-11-26T01:14:41.724Z,21.98
2022-11-26T01:17:12.033Z,21.02
2022-11-26T01:19:39.123Z,21.90
2022-11-26T01:22:06.182Z,19.13
2022-11-26T01:24:33.516Z,20.05
2022-11-26T01:27:00.539Z,20.30
2022-11-26T01:29:27.668Z,21.13
2022-11-26T01:31:54.750Z,20.55
2022-11-26T01:34:21.724Z,21.15
2022-11-26T01:36:48.709Z,21.73
2022-11-26T01:39:17.281Z,19.88
2022-11-26T01:41:54.741Z,20.13
2022-11-26T01:44:25.059Z,20.40
2022-11-26T01:46:53.096Z,20.65
2022-11-26T01:49:26.004Z,20.30
2022-11-26T01:52:24.879Z,19.38
2022-11-26T01:54:53.486Z,20.20
2022-11-26T01:57:27.032Z,18.42
2022-11-26T01:59:56.910Z,19.23
2022-11-26T02:02:27.229Z,19.02
2022-11-26T02:05:22.655Z,19.40
2022-11-26T02:07:50.534Z,18.77
2022-11-26T02:10:17.959Z,17.52
2022-11-26T02:12:45.276Z,17.75
2022-11-26T02:15:12.865Z,18.90
2022-11-26T02:17:52.494Z,20.30
2022-11-26T02:20:42.432Z,18.95
2022-11-26T02:23:34.543Z,18.05
2022-11-26T02:26:32.249Z,19.80
2022-11-26T02:29:08.007Z,19.27
2022-11-26T02:31:57.207Z,19.05
2022-11-26T02:34:37.527Z,18.63
2022-11-26T02:37:13.385Z,18.95
2022-11-26T02:39:40.435Z,20.85
2022-11-26T02:42:30.392Z,20.77
2022-11-26T02:45:06.136Z,21.52
2022-11-26T02:47:33.971Z,21.65
2022-11-26T02:50:07.055Z,21.83
2022-11-26T02:52:35.401Z,21.92
2022-11-26T02:55:05.720Z,22.20
2022-11-26T02:57:36.892Z,22.60
2022-11-26T03:00:05.869Z,20.50
2022-11-26T03:02:42.506Z,20.67
2022-11-26T03:05:11.583Z,21.98
2022-11-26T03:07:39.489Z,22.17
2022-11-26T03:10:07.383Z,23.10
2022-11-26T03:12:34.432Z,23.67
2022-11-26T03:15:01.637Z,24.40
2022-11-26T03:17:28.653Z,24.17
2022-11-26T03:19:55.730Z,22.75
2022-11-26T03:22:22.818Z,22.63
2022-11-26T03:24:49.798Z,23.35
2022-11-26T03:27:16.823Z,24.17
2022-11-26T03:29:43.808Z,23.65
2022-11-26T03:32:10.791Z,22.73
2022-11-26T03:34:37.912Z,22.35
2022-11-26T03:37:05.053Z,22.17
2022-11-26T03:39:32.042Z,20.70
2022-11-26T03:41:59.009Z,23.15
2022-11-26T03:44:25.981Z,21.65
2022-11-26T03:46:53.005Z,21.98
2022-11-26T03:49:20.116Z,22.10
2022-11-26T03:51:47.049Z,22.00
2022-11-26T03:54:14.978Z,24.02
2022-11-26T03:56:42.291Z,22.95
2022-11-26T03:59:09.328Z,21.38
2022-11-26T04:01:36.327Z,21.83
2022-11-26T04:04:03.953Z,22.23
2022-11-26T04:06:31.110Z,23.17
2022-11-26T04:08:58.084Z,24.38
2022-11-26T04:11:25.095Z,22.70
2022-11-26T04:14:11.895Z,23.20
2022-11-26T04:16:39.070Z,23.92
2022-11-26T04:19:06.248Z,25.13
2022-11-26T04:21:33.228Z,24.30
2022-11-26T04:24:00.165Z,23.98
2022-11-26T04:26:27.313Z,25.17
2022-11-26T04:28:54.380Z,23.00
2022-11-26T04:31:22.067Z,23.05
2022-11-26T04:33:49.124Z,24.27
2022-11-26T04:36:16.075Z,21.83
2022-11-26T04:38:43.116Z,23.25
2022-11-26T04:41:10.244Z,23.13
2022-11-26T04:43:37.271Z,23.67
2022-11-26T04:46:04.482Z,23.45
2022-11-26T04:48:31.476Z,21.38
2022-11-26T04:50:58.507Z,24.02
2022-11-26T04:53:25.820Z,23.80
2022-11-26T04:55:53.239Z,21.67
2022-11-26T04:58:21.397Z,23.25
2022-11-26T05:00:51.005Z,25.65
2022-11-26T05:03:19.065Z,23.10
2022-11-26T05:05:47.157Z,24.80
2022-11-26T05:08:14.745Z,23.05
2022-11-26T05:10:42.001Z,24.15
2022-11-26T05:13:09.397Z,25.25
2022-11-26T05:15:36.386Z,23.95
2022-11-26T05:18:03.448Z,22.80
2022-11-26T05:20:31.312Z,24.30
2022-11-26T05:22:58.336Z,24.17
2022-11-26T05:25:25.288Z,23.25
2022-11-26T05:27:52.298Z,24.58
2022-11-26T05:30:19.657Z,23.77
2022-11-26T05:32:46.868Z,23.40
2022-11-26T05:35:13.929Z,23.83
2022-11-26T05:37:40.890Z,22.75
2022-11-26T05:40:08.877Z,24.45
2022-11-26T05:42:36.005Z,22.98
2022-11-26T05:45:04.187Z,23.60
2022-11-26T05:47:31.176Z,23.88
2022-11-26T05:49:58.320Z,24.15
2022-11-26T05:52:25.401Z,23.88
2022-11-26T05:54:52.538Z,23.33
2022-11-26T05:57:20.225Z,23.05
2022-11-26T05:59:49.227Z,23.33
2022-11-26T06:02:16.501Z,22.90
2022-11-26T06:04:43.644Z,23.02
2022-11-26T06:07:10.921Z,22.70
2022-11-26T06:09:38.222Z,24.80
2022-11-26T06:12:05.663Z,23.83
2022-11-26T06:14:32.722Z,22.45
2022-11-26T06:16:59.870Z,23.52
2022-11-26T06:19:27.118Z,23.42
2022-11-26T06:21:54.071Z,23.20
2022-11-26T06:24:21.101Z,22.83
2022-11-26T06:26:48.089Z,23.30
2022-11-26T06:29:15.074Z,22.05
2022-11-26T06:31:42.175Z,23.27
2022-11-26T06:34:09.212Z,22.38
2022-11-26T06:36:36.195Z,24.00
2022-11-26T06:39:03.463Z,22.05
2022-11-26T06:41:30.434Z,21.67
2022-11-26T06:43:59.383Z,22.45
2022-11-26T06:46:26.387Z,21.50
2022-11-26T06:48:53.455Z,23.45
2022-11-26T06:51:21.973Z,22.45
2022-11-26T06:53:49.380Z,22.27
2022-11-26T06:56:19.161Z,21.92
2022-11-26T06:58:52.059Z,23.23
2022-11-26T07:01:21.343Z,23.25
2022-11-26T07:03:48.493Z,23.52
2022-11-26T07:06:16.943Z,21.98
2022-11-26T07:08:44.732Z,22.08
2022-11-26T07:11:12.004Z,21.33
2022-11-26T07:13:39.131Z,22.25
2022-11-26T07:16:06.771Z,22.15
2022-11-26T07:18:34.286Z,21.55
2022-11-26T07:21:06.229Z,21.65
2022-11-26T07:23:33.305Z,23.63
2022-11-26T07:26:04.537Z,20.23
2022-11-26T07:28:31.625Z,24.30
2022-11-26T07:31:03.924Z,23.52
2022-11-26T07:33:31.175Z,22.88
2022-11-26T07:36:03.189Z,23.17
2022-11-26T07:38:30.561Z,24.27
2022-11-26T07:41:07.041Z,23.88
2022-11-26T07:43:38.310Z,23.67
2022-11-26T07:46:07.574Z,24.38
2022-11-26T07:48:35.176Z,25.67
2022-11-26T07:51:03.218Z,25.23
2022-11-26T07:53:34.843Z,25.35
2022-11-26T07:56:06.119Z,25.85
2022-11-26T07:58:33.755Z,25.73
2022-11-26T08:01:12.009Z,24.98
2022-11-26T08:03:43.370Z,29.80
2022-11-26T08:06:13.461Z,28.92
2022-11-26T08:08:41.340Z,27.50
2022-11-26T08:11:17.651Z,28.58
2022-11-26T08:13:45.843Z,28.17
2022-11-26T08:16:14.067Z,29.20
2022-11-26T08:18:41.902Z,30.63
2022-11-26T08:21:09.024Z,30.33
2022-11-26T08:23:36.117Z,30.23
2022-11-26T08:29:00.366Z,31.33
2022-11-26T08:31:28.210Z,31.48
2022-11-26T08:33:59.945Z,32.65
2022-11-26T08:36:28.400Z,31.90
2022-11-26T08:38:55.755Z,33.92
2022-11-26T08:41:23.118Z,32.90
2022-11-26T08:44:06.954Z,32.72
2022-11-26T08:46:40.148Z,31.75
2022-11-26T08:49:10.199Z,30.80
2022-11-26T08:51:37.297Z,31.10
2022-11-26T08:54:04.875Z,32.97
2022-11-26T08:56:31.985Z,31.13
2022-11-26T08:58:59.234Z,31.05
2022-11-26T09:01:29.667Z,31.63
2022-11-26T09:04:00.194Z,29.75
2022-11-26T09:06:29.785Z,31.55
2022-11-26T09:09:17.330Z,31.42
2022-11-26T09:11:47.174Z,32.03
2022-11-26T09:14:16.196Z,31.42
2022-11-26T09:16:43.833Z,31.95
2022-11-26T09:19:12.872Z,31.45
2022-11-26T09:21:40.641Z,32.03
2022-11-26T09:24:07.802Z,34.45
2022-11-26T09:26:35.632Z,31.63
2022-11-26T09:29:03.321Z,33.25
2022-11-26T09:31:31.011Z,33.25
2022-11-26T09:34:00.248Z,32.58
2022-11-26T09:36:27.382Z,32.35
2022-11-26T09:38:58.170Z,31.15
2022-11-26T09:41:43.809Z,30.90
2022-11-26T09:44:32.200Z,33.53
2022-11-26T09:47:22.321Z,32.90
2022-11-26T09:50:13.406Z,31.98
2022-11-26T09:52:55.151Z,34.00
2022-11-26T09:55:32.307Z,29.92
2022-11-26T09:58:26.546Z,31.33
2022-11-26T10:00:56.757Z,31.30
2022-11-26T10:03:38.663Z,31.05
2022-11-26T10:06:39.955Z,30.27
2022-11-26T10:09:28.584Z,32.05
2022-11-26T10:12:07.211Z,31.33
2022-11-26T10:14:46.000Z,31.08
2022-11-26T10:17:19.226Z,30.35
2022-11-26T10:20:00.667Z,31.75
2022-11-26T10:22:45.044Z,29.45
2022-11-26T10:25:18.563Z,31.60
2022-11-26T10:27:48.183Z,33.70
2022-11-26T10:30:24.343Z,32.33
2022-11-26T10:32:52.889Z,34.25
2022-11-26T10:35:25.868Z,32.45
2022-11-26T10:37:55.783Z,32.67
2022-11-26T10:40:25.514Z,30.52
2022-11-26T10:43:06.137Z,33.83
2022-11-26T10:45:48.429Z,35.53
2022-11-26T10:48:28.693Z,34.67
2022-11-26T10:50:55.635Z,35.63
2022-11-26T10:53:24.069Z,35.40
2022-11-26T10:56:00.055Z,36.03
2022-11-26T10:58:42.277Z,33.40
2022-11-26T11:01:10.152Z,34.38
2022-11-26T11:04:07.330Z,32.63
2022-11-26T11:06:44.301Z,32.47
2022-11-26T11:09:32.925Z,32.13
2022-11-26T11:12:20.345Z,32.13
2022-11-26T11:14:48.576Z,31.35
2022-11-26T11:17:42.353Z,32.38
2022-11-26T11:20:15.601Z,30.45
2022-11-26T11:22:44.305Z,32.55
2022-11-26T11:25:26.028Z,31.98
2022-11-26T11:27:55.219Z,32.45
2022-11-26T11:30:27.814Z,30.70
2022-11-26T11:33:09.390Z,31.02
2022-11-26T11:35:36.614Z,31.52
2022-11-26T11:38:03.888Z,31.75
2022-11-26T11:40:40.400Z,30.92
2022-11-26T11:43:14.404Z,30.70
2022-11-26T11:46:02.574Z,32.60
2022-11-26T11:48:35.272Z,31.83
2022-11-26T11:51:38.287Z,32.95
2022-11-26T11:54:24.352Z,30.70
2022-11-26T11:57:04.552Z,30.27
2022-11-26T11:59:58.263Z,30.42
2022-11-26T12:02:37.476Z,29.40
2022-11-26T12:05:23.405Z,28.85
2022-11-26T12:08:06.267Z,29.50
2022-11-26T12:11:23.333Z,29.98
2022-11-26T12:13:56.312Z,29.88
2022-11-26T12:16:27.319Z,30.13
2022-11-26T12:19:00.758Z,29.83
2022-11-26T12:21:54.468Z,30.33
2022-11-26T12:24:36.641Z,23.35
2022-11-26T12:27:31.873Z,24.08
2022-11-26T12:30:21.785Z,21.65
2022-11-26T12:33:05.713Z,20.73
2022-11-26T12:35:43.477Z,21.20
2022-11-26T12:38:30.637Z,22.00
2022-11-26T12:40:58.075Z,20.23
2022-11-26T12:43:35.260Z,23.17
2022-11-26T12:46:23.309Z,22.05
2022-11-26T12:48:56.647Z,21.48
2022-11-26T12:51:35.256Z,20.52
2022-11-26T12:54:19.848Z,16.70
2022-11-26T12:57:07.233Z,17.48
2022-11-26T13:00:06.817Z,17.58
2022-11-26T13:02:43.296Z,17.17
2022-11-26T13:05:51.395Z,15.90
2022-11-26T13:08:44.969Z,15.70
2022-11-26T13:11:39.576Z,16.10
2022-11-26T13:14:43.818Z,15.75
2022-11-26T13:17:16.867Z,16.10
2022-11-26T13:19:53.021Z,15.57
2022-11-26T13:22:50.538Z,16.25
2022-11-26T13:25:41.584Z,22.50
2022-11-26T13:29:00.996Z,16.60
2022-11-26T13:31:37.359Z,18.52
2022-11-26T13:34:21.770Z,18.77
2022-11-26T13:37:20.280Z,17.73
2022-11-26T13:40:16.160Z,21.92
2022-11-26T13:43:10.867Z,18.90
2022-11-26T13:46:22.544Z,24.38
2022-11-26T13:48:58.688Z,18.38
2022-11-26T13:51:36.862Z,19.90
2022-11-26T13:54:13.551Z,25.10
2022-11-26T13:56:41.874Z,26.02
2022-11-26T13:59:28.340Z,18.73
2022-11-26T14:01:56.352Z,19.52
2022-11-26T14:04:23.373Z,25.02
2022-11-26T14:07:05.557Z,17.17
2022-11-26T14:09:44.440Z,24.52
2022-11-26T14:12:12.633Z,23.52
2022-11-26T14:14:41.896Z,23.38
2022-11-26T14:17:09.015Z,21.88
2022-11-26T14:19:42.341Z,19.00
2022-11-26T14:22:33.726Z,17.98
2022-11-26T14:25:09.530Z,17.42
2022-11-26T14:27:40.866Z,16.10
2022-11-26T14:30:07.809Z,15.48
2022-11-26T14:33:00.408Z,13.32
2022-11-26T14:35:34.516Z,13.50
2022-11-26T14:38:04.575Z,12.07
2022-11-26T14:40:37.572Z,10.60
2022-11-26T14:43:15.171Z,10.40
2022-11-26T14:45:47.473Z,9.88
2022-11-26T14:48:26.018Z,9.10
2022-11-26T14:50:58.906Z,10.57
2022-11-26T14:53:30.075Z,9.80
2022-11-26T14:55:57.933Z,9.43
2022-11-26T14:58:30.779Z,8.02
2022-11-26T15:01:20.250Z,9.55
2022-11-26T15:03:58.973Z,7.97
2022-11-26T15:06:29.136Z,8.77
2022-11-26T15:09:15.191Z,8.05
2022-11-26T15:12:11.364Z,6.43
2022-11-26T15:14:52.902Z,6.65
2022-11-26T15:17:22.810Z,9.27
2022-11-26T15:19:53.971Z,10.25
2022-11-26T15:22:44.336Z,7.78
2022-11-26T15:25:35.309Z,10.07
2022-11-26T15:28:16.693Z,8.05
2022-11-26T15:30:57.935Z,8.23
2022-11-26T15:33:27.307Z,8.45
2022-11-26T15:35:57.777Z,8.27
2022-11-26T15:38:30.708Z,9.15
2022-11-26T15:40:57.721Z,9.45
2022-11-26T15:43:24.685Z,10.00
2022-11-26T15:46:02.651Z,9.80
2022-11-26T15:48:51.591Z,8.63
2022-11-26T15:51:35.772Z,8.18
2022-11-26T15:54:20.280Z,8.55
2022-11-26T15:56:52.624Z,7.82
2022-11-26T15:59:21.228Z,7.70
2022-11-26T16:01:48.587Z,7.50
2022-11-26T16:04:39.238Z,7.10
2022-11-26T16:07:10.607Z,7.63
2022-11-26T16:09:37.654Z,7.25
2022-11-26T16:12:04.956Z,7.78
2022-11-26T16:14:39.490Z,8.02
2022-11-26T16:17:13.428Z,8.33
2022-11-26T16:19:54.293Z,7.57
2022-11-26T16:22:28.228Z,7.55
2022-11-26T16:25:07.579Z,8.07
2022-11-26T16:27:34.858Z,6.70
2022-11-26T16:30:07.346Z,8.23
2022-11-26T16:32:34.381Z,8.05
2022-11-26T16:35:17.459Z,6.93
2022-11-26T16:37:48.500Z,7.10
2022-11-26T16:40:17.704Z,7.95
2022-11-26T16:42:45.042Z,7.22
2022-11-26T16:45:13.193Z,6.93
2022-11-26T16:47:48.458Z,6.80
2022-11-26T16:50:24.808Z,7.35
2022-11-26T16:52:52.985Z,7.75
2022-11-26T16:55:23.921Z,8.18
2022-11-26T16:57:56.826Z,7.70
2022-11-26T17:00:26.192Z,8.20
2022-11-26T17:02:54.119Z,7.95
2022-11-26T17:05:22.634Z,8.77
2022-11-26T17:07:53.507Z,7.97
2022-11-26T17:10:25.005Z,8.98
2022-11-26T17:12:52.041Z,8.65
2022-11-26T17:15:19.101Z,7.97
2022-11-26T17:17:46.567Z,7.47
2022-11-26T17:20:25.576Z,7.97
2022-11-26T17:22:52.799Z,8.35
2022-11-26T17:25:20.606Z,8.35
2022-11-26T17:27:48.470Z,8.50
2022-11-26T17:30:18.452Z,9.02
2022-11-26T17:32:45.660Z,29.30
2022-11-26T17:35:13.256Z,31.83
2022-11-26T17:37:40.855Z,9.77
2022-11-26T17:40:20.689Z,10.93
2022-11-26T17:42:48.053Z,10.35
2022-11-26T17:45:15.900Z,13.75
2022-11-26T17:47:43.760Z,11.52
2022-11-26T17:50:30.292Z,10.82
2022-11-26T17:52:57.296Z,10.18
2022-11-26T17:55:25.777Z,10.68
2022-11-26T17:57:53.510Z,10.25
2022-11-26T18:00:28.182Z,10.05
2022-11-26T18:02:55.894Z,10.50
2022-11-26T18:05:23.477Z,11.30
2022-11-26T18:07:50.800Z,10.65
2022-11-26T18:10:19.906Z,10.43
2022-11-26T18:12:48.351Z,11.15
2022-11-26T18:15:21.556Z,9.40
2022-11-26T18:17:50.955Z,10.75
2022-11-26T18:20:21.374Z,10.88
2022-11-26T18:22:59.354Z,10.48
2022-11-26T18:25:27.288Z,10.50
2022-11-26T18:27:54.827Z,11.38
2022-11-26T18:30:22.201Z,10.15
2022-11-26T18:32:49.402Z,10.10
2022-11-26T18:35:17.177Z,10.10
2022-11-26T18:37:44.644Z,10.60
2022-11-26T18:40:15.376Z,10.30
2022-11-26T18:42:42.580Z,9.95
2022-11-26T18:45:11.894Z,10.95
2022-11-26T18:47:39.074Z,9.65
2022-11-26T18:50:06.877Z,11.07
2022-11-26T18:52:33.889Z,10.45
2022-11-26T18:55:04.639Z,10.68
2022-11-26T18:57:32.128Z,10.77
2022-11-26T18:59:59.179Z,9.95
2022-11-26T19:02:26.259Z,10.57
2022-11-26T19:04:53.305Z,11.50
2022-11-26T19:07:20.652Z,10.40
2022-11-26T19:09:48.743Z,9.75
2022-11-26T19:12:15.816Z,10.10
2022-11-26T19:14:42.714Z,11.10
2022-11-26T19:17:09.931Z,10.55
2022-11-26T19:19:38.433Z,11.23
2022-11-26T19:22:05.679Z,9.73
2022-11-26T19:24:32.606Z,11.68
2022-11-26T19:26:59.573Z,9.82
2022-11-26T19:29:26.620Z,9.65
2022-11-26T19:31:53.661Z,10.50
2022-11-26T19:34:20.906Z,11.20
2022-11-26T19:36:49.025Z,9.68
2022-11-26T19:39:16.933Z,9.98
2022-11-26T19:41:44.070Z,10.02
2022-11-26T19:44:12.199Z,10.20
2022-11-26T19:46:41.414Z,31.67
2022-11-26T19:49:12.128Z,10.32
2022-11-26T19:51:40.163Z,10.35
2022-11-26T19:54:07.488Z,9.98
2022-11-26T19:56:35.245Z,10.93
2022-11-26T19:59:03.325Z,10.95
2022-11-26T20:01:32.359Z,11.88
2022-11-26T20:04:01.681Z,10.43
2022-11-26T20:06:29.956Z,11.52
2022-11-26T20:09:00.514Z,11.20
2022-11-26T20:11:28.959Z,10.45
2022-11-26T20:13:57.183Z,10.48
2022-11-26T20:16:27.422Z,10.77
2022-11-26T20:18:54.880Z,10.73
2022-11-26T20:21:27.463Z,12.25
2022-11-26T20:23:57.391Z,11.70
2022-11-26T20:26:30.668Z,11.35
2022-11-26T20:29:07.751Z,12.32
2022-11-26T20:31:38.981Z,11.23
2022-11-26T20:34:05.932Z,12.23
2022-11-26T20:36:32.981Z,12.40
2022-11-26T20:39:01.844Z,12.00
2022-11-26T20:41:38.084Z,10.93
2022-11-26T20:44:05.342Z,11.13
2022-11-26T20:46:32.355Z,11.38
2022-11-26T20:48:59.337Z,12.40
2022-11-26T20:51:26.355Z,12.38
2022-11-26T20:53:53.676Z,12.52
2022-11-26T20:56:21.745Z,13.63
2022-11-26T20:58:50.411Z,13.90
2022-11-26T21:01:19.976Z,16.52
2022-11-26T21:03:47.258Z,15.93
2022-11-26T21:06:16.077Z,14.98
2022-11-26T21:08:43.286Z,16.30
2022-11-26T21:11:11.270Z,16.08
2022-11-26T21:13:38.992Z,16.80
2022-11-26T21:16:09.432Z,16.50
2022-11-26T21:18:36.550Z,15.73
2022-11-26T21:21:14.321Z,17.92
2022-11-26T21:23:43.374Z,17.30
2022-11-26T21:26:15.211Z,16.75
2022-11-26T21:28:43.258Z,16.98
2022-11-26T21:31:17.046Z,16.95
2022-11-26T21:33:47.989Z,17.02
2022-11-26T21:36:16.532Z,17.05
2022-11-26T21:38:48.547Z,18.45
2022-11-26T21:41:16.653Z,16.45
2022-11-26T21:43:44.386Z,16.65
2022-11-26T21:46:15.835Z,16.40
2022-11-26T21:48:43.020Z,16.83
2022-11-26T21:51:13.413Z,16.90
2022-11-26T21:53:40.628Z,16.75
2022-11-26T21:56:15.406Z,17.23
2022-11-26T21:58:42.904Z,17.13
2022-11-26T22:01:14.176Z,17.25
2022-11-26T22:03:43.202Z,16.38
2022-11-26T22:06:11.150Z,16.77
2022-11-26T22:08:38.379Z,16.30
2022-11-26T22:11:15.257Z,16.48
2022-11-26T22:13:42.288Z,15.77
2022-11-26T22:16:10.944Z,14.55
2022-11-26T22:18:39.280Z,16.13
2022-11-26T22:21:18.303Z,15.13
2022-11-26T22:23:45.845Z,14.43
2022-11-26T22:26:13.184Z,15.05
2022-11-26T22:28:40.719Z,14.73
2022-11-26T22:31:14.666Z,14.38
2022-11-26T22:33:41.926Z,14.98
2022-11-26T22:36:09.192Z,14.43
2022-11-26T22:38:40.251Z,14.13
2022-11-26T22:41:09.603Z,14.35
2022-11-26T22:43:37.152Z,15.57
2022-11-26T22:46:15.929Z,14.50
2022-11-26T22:48:43.983Z,14.95
2022-11-26T22:51:11.030Z,13.65
2022-11-26T22:53:38.005Z,14.35
2022-11-26T22:56:05.769Z,14.00
2022-11-26T22:58:33.946Z,14.30
2022-11-26T23:01:04.407Z,13.57
2022-11-26T23:03:34.286Z,14.23
2022-11-26T23:06:10.218Z,13.63
2022-11-26T23:11:25.764Z,13.32
2022-11-26T23:13:53.813Z,13.40
2022-11-26T23:16:22.476Z,14.80
2022-11-26T23:18:50.695Z,12.77
2022-11-26T23:21:21.864Z,12.60
2022-11-26T23:23:49.761Z,13.43
2022-11-26T23:26:26.508Z,12.70
2022-11-26T23:28:54.580Z,12.48
2022-11-26T23:31:24.806Z,11.65
2022-11-26T23:33:52.254Z,12.23
2022-11-26T23:36:20.078Z,12.23
2022-11-26T23:38:47.507Z,11.35
2022-11-26T23:41:14.871Z,11.88
2022-11-26T23:43:42.519Z,11.30
2022-11-26T23:46:20.399Z,11.27
2022-11-26T23:48:48.314Z,11.60
2022-11-26T23:51:24.449Z,11.75
2022-11-26T23:53:52.789Z,10.82
2022-11-26T23:56:22.763Z,12.20
2022-11-26T23:58:51.584Z,10.88
